sensor_id;sensor_type;location;lat;lon;timestamp;temperature;humidity
6118;DHT22;3089;48.202;11.510;2023-11-19T00:00:13;5.60;99.90
6118;DHT22;3089;48.202;11.510;2023-11-19T00:02:41;5.50;99.90
6118;DHT22;3089;48.202;11.510;2023-11-19T00:05:10;5.50;99.90
6118;DHT22;3089;48.202;11.510;2023-11-19T00:07:40;5.60;99.90
6118;DHT22;3089;48.202;11.510;2023-11-19T00:10:10;5.40;99.90
6118;DHT22;3089;48.202;11.510;2023-11-19T00:12:39;5.50;99.90
6118;DHT22;3089;48.202;11.510;2023-11-19T00:15:08;5.30;99.90
6118;DHT22;3089;48.202;11.510;2023-11-19T00:17:39;5.30;99.90
6118;DHT22;3089;48.202;11.510;2023-11-19T00:20:12;5.60;99.90
6118;DHT22;3089;48.202;11.510;2023-11-19T00:22:40;5.60;99.90
6118;DHT22;3089;48.202;11.510;2023-11-19T00:25:12;5.70;99.90
6118;DHT22;3089;48.202;11.510;2023-11-19T00:27:40;5.50;99.90
6118;DHT22;3089;48.202;11.510;2023-11-19T00:30:11;5.80;99.90
6118;DHT22;3089;48.202;11.510;2023-11-19T00:32:40;5.80;99.90
6118;DHT22;3089;48.202;11.510;2023-11-19T00:35:08;5.90;99.90
6118;DHT22;3089;48.202;11.510;2023-11-19T00:37:36;5.80;99.90
6118;DHT22;3089;48.202;11.510;2023-11-19T00:40:05;6.00;99.90
6118;DHT22;3089;48.202;11.510;2023-11-19T00:42:36;6.00;99.90
6118;DHT22;3089;48.202;11.510;2023-11-19T00:45:04;6.00;99.90
6118;DHT22;3089;48.202;11.510;2023-11-19T00:47:35;6.00;99.90
6118;DHT22;3089;48.202;11.510;2023-11-19T00:50:03;6.00;99.90
6118;DHT22;3089;48.202;11.510;2023-11-19T00:52:31;6.10;99.90
6118;DHT22;3089;48.202;11.510;2023-11-19T00:54:59;6.20;99.90
6118;DHT22;3089;48.202;11.510;2023-11-19T00:57:27;6.20;99.90
6118;DHT22;3089;48.202;11.510;2023-11-19T00:59:56;6.20;99.90
6118;DHT22;3089;48.202;11.510;2023-11-19T01:02:24;6.20;99.90
6118;DHT22;3089;48.202;11.510;2023-11-19T01:04:52;6.20;99.90
6118;DHT22;3089;48.202;11.510;2023-11-19T01:07:20;6.30;99.90
6118;DHT22;3089;48.202;11.510;2023-11-19T01:09:48;6.30;99.90
6118;DHT22;3089;48.202;11.510;2023-11-19T01:12:17;6.30;99.90
6118;DHT22;3089;48.202;11.510;2023-11-19T01:14:45;6.30;99.90
6118;DHT22;3089;48.202;11.510;2023-11-19T01:17:14;6.30;99.90
6118;DHT22;3089;48.202;11.510;2023-11-19T01:19:42;6.20;99.90
6118;DHT22;3089;48.202;11.510;2023-11-19T01:22:10;6.30;99.90
6118;DHT22;3089;48.202;11.510;2023-11-19T01:24:38;6.30;99.90
6118;DHT22;3089;48.202;11.510;2023-11-19T01:27:06;6.40;99.90
6118;DHT22;3089;48.202;11.510;2023-11-19T01:29:35;6.40;99.90
6118;DHT22;3089;48.202;11.510;2023-11-19T01:32:05;6.30;99.90
6118;DHT22;3089;48.202;11.510;2023-11-19T01:34:34;6.40;99.90
6118;DHT22;3089;48.202;11.510;2023-11-19T01:37:02;6.30;99.90
6118;DHT22;3089;48.202;11.510;2023-11-19T01:39:30;6.40;99.90
6118;DHT22;3089;48.202;11.510;2023-11-19T01:41:58;6.30;99.90
6118;DHT22;3089;48.202;11.510;2023-11-19T01:44:26;6.20;99.90
6118;DHT22;3089;48.202;11.510;2023-11-19T01:46:54;6.40;99.90
6118;DHT22;3089;48.202;11.510;2023-11-19T01:49:22;6.40;99.90
6118;DHT22;3089;48.202;11.510;2023-11-19T01:51:52;6.50;99.90
6118;DHT22;3089;48.202;11.510;2023-11-19T01:54:20;6.50;99.90
6118;DHT22;3089;48.202;11.510;2023-11-19T01:56:48;6.40;99.90
6118;DHT22;3089;48.202;11.510;2023-11-19T01:59:16;6.50;99.90
6118;DHT22;3089;48.202;11.510;2023-11-19T02:01:44;6.50;99.90
6118;DHT22;3089;48.202;11.510;2023-11-19T02:04:12;6.60;99.90
6118;DHT22;3089;48.202;11.510;2023-11-19T02:06:42;6.50;99.90
6118;DHT22;3089;48.202;11.510;2023-11-19T02:09:12;6.50;99.90
6118;DHT22;3089;48.202;11.510;2023-11-19T02:11:40;6.40;99.90
6118;DHT22;3089;48.202;11.510;2023-11-19T02:14:08;6.50;99.90
6118;DHT22;3089;48.202;11.510;2023-11-19T02:16:37;6.50;99.90
6118;DHT22;3089;48.202;11.510;2023-11-19T02:19:05;6.50;99.90
6118;DHT22;3089;48.202;11.510;2023-11-19T02:21:34;6.40;99.90
6118;DHT22;3089;48.202;11.510;2023-11-19T02:24:06;6.40;99.90
6118;DHT22;3089;48.202;11.510;2023-11-19T02:26:40;6.50;99.90
6118;DHT22;3089;48.202;11.510;2023-11-19T02:29:10;6.50;99.90
6118;DHT22;3089;48.202;11.510;2023-11-19T02:31:39;6.50;99.90
6118;DHT22;3089;48.202;11.510;2023-11-19T02:34:10;6.50;99.90
6118;DHT22;3089;48.202;11.510;2023-11-19T02:36:39;6.50;99.90
6118;DHT22;3089;48.202;11.510;2023-11-19T02:39:08;6.50;99.90
6118;DHT22;3089;48.202;11.510;2023-11-19T02:41:39;6.50;99.90
6118;DHT22;3089;48.202;11.510;2023-11-19T02:44:07;6.50;99.90
6118;DHT22;3089;48.202;11.510;2023-11-19T02:46:36;6.40;99.90
6118;DHT22;3089;48.202;11.510;2023-11-19T02:49:04;6.50;99.90
6118;DHT22;3089;48.202;11.510;2023-11-19T02:51:33;6.40;99.90
6118;DHT22;3089;48.202;11.510;2023-11-19T02:54:02;6.50;99.90
6118;DHT22;3089;48.202;11.510;2023-11-19T02:56:30;6.50;99.90
6118;DHT22;3089;48.202;11.510;2023-11-19T02:59:02;6.50;99.90
6118;DHT22;3089;48.202;11.510;2023-11-19T03:01:36;6.50;99.90
6118;DHT22;3089;48.202;11.510;2023-11-19T03:04:10;6.50;99.90
6118;DHT22;3089;48.202;11.510;2023-11-19T03:06:39;6.60;99.90
6118;DHT22;3089;48.202;11.510;2023-11-19T03:09:07;6.50;99.90
6118;DHT22;3089;48.202;11.510;2023-11-19T03:11:37;6.70;99.90
6118;DHT22;3089;48.202;11.510;2023-11-19T03:14:05;6.80;99.90
6118;DHT22;3089;48.202;11.510;2023-11-19T03:16:35;6.90;99.90
6118;DHT22;3089;48.202;11.510;2023-11-19T03:19:03;6.90;99.90
6118;DHT22;3089;48.202;11.510;2023-11-19T03:21:31;7.00;99.90
6118;DHT22;3089;48.202;11.510;2023-11-19T03:23:59;7.00;99.90
6118;DHT22;3089;48.202;11.510;2023-11-19T03:26:27;7.10;99.90
6118;DHT22;3089;48.202;11.510;2023-11-19T03:28:55;7.00;99.90
6118;DHT22;3089;48.202;11.510;2023-11-19T03:31:23;6.90;99.90
6118;DHT22;3089;48.202;11.510;2023-11-19T03:33:53;6.90;99.90
6118;DHT22;3089;48.202;11.510;2023-11-19T03:36:25;6.90;99.90
6118;DHT22;3089;48.202;11.510;2023-11-19T03:38:53;7.10;99.90
6118;DHT22;3089;48.202;11.510;2023-11-19T03:41:20;7.10;99.90
6118;DHT22;3089;48.202;11.510;2023-11-19T03:43:49;7.10;99.90
6118;DHT22;3089;48.202;11.510;2023-11-19T03:46:18;7.10;99.90
6118;DHT22;3089;48.202;11.510;2023-11-19T03:48:46;7.10;99.90
6118;DHT22;3089;48.202;11.510;2023-11-19T03:51:16;7.40;99.90
6118;DHT22;3089;48.202;11.510;2023-11-19T03:53:44;7.30;99.90
6118;DHT22;3089;48.202;11.510;2023-11-19T03:56:13;7.40;99.90
6118;DHT22;3089;48.202;11.510;2023-11-19T03:58:41;7.40;99.90
6118;DHT22;3089;48.202;11.510;2023-11-19T04:01:11;7.50;99.90
6118;DHT22;3089;48.202;11.510;2023-11-19T04:03:39;7.50;99.90
6118;DHT22;3089;48.202;11.510;2023-11-19T04:06:18;7.50;99.90
6118;DHT22;3089;48.202;11.510;2023-11-19T04:08:46;7.50;99.90
6118;DHT22;3089;48.202;11.510;2023-11-19T04:11:14;7.60;99.90
6118;DHT22;3089;48.202;11.510;2023-11-19T04:13:41;7.60;99.90
6118;DHT22;3089;48.202;11.510;2023-11-19T04:16:10;7.70;99.90
6118;DHT22;3089;48.202;11.510;2023-11-19T04:18:38;7.60;99.90
6118;DHT22;3089;48.202;11.510;2023-11-19T04:21:06;7.60;99.90
6118;DHT22;3089;48.202;11.510;2023-11-19T04:23:36;7.70;99.90
6118;DHT22;3089;48.202;11.510;2023-11-19T04:26:04;7.60;99.90
6118;DHT22;3089;48.202;11.510;2023-11-19T04:28:36;7.60;99.90
6118;DHT22;3089;48.202;11.510;2023-11-19T04:31:04;7.60;99.90
6118;DHT22;3089;48.202;11.510;2023-11-19T04:33:33;7.70;99.90
6118;DHT22;3089;48.202;11.510;2023-11-19T04:36:00;7.70;99.90
6118;DHT22;3089;48.202;11.510;2023-11-19T04:38:29;7.80;99.90
6118;DHT22;3089;48.202;11.510;2023-11-19T04:40:58;7.80;99.90
6118;DHT22;3089;48.202;11.510;2023-11-19T04:43:27;7.70;99.90
6118;DHT22;3089;48.202;11.510;2023-11-19T04:45:54;7.70;99.90
6118;DHT22;3089;48.202;11.510;2023-11-19T04:48:23;7.80;99.90
6118;DHT22;3089;48.202;11.510;2023-11-19T04:50:51;7.70;99.90
6118;DHT22;3089;48.202;11.510;2023-11-19T04:53:19;7.80;99.90
6118;DHT22;3089;48.202;11.510;2023-11-19T04:55:47;8.00;99.90
6118;DHT22;3089;48.202;11.510;2023-11-19T04:58:16;8.00;99.90
6118;DHT22;3089;48.202;11.510;2023-11-19T05:00:45;7.90;99.90
6118;DHT22;3089;48.202;11.510;2023-11-19T05:03:13;7.90;99.90
6118;DHT22;3089;48.202;11.510;2023-11-19T05:05:41;8.00;99.90
6118;DHT22;3089;48.202;11.510;2023-11-19T05:08:09;7.80;99.90
6118;DHT22;3089;48.202;11.510;2023-11-19T05:10:38;7.90;99.90
6118;DHT22;3089;48.202;11.510;2023-11-19T05:13:07;8.00;99.90
6118;DHT22;3089;48.202;11.510;2023-11-19T05:15:36;8.00;99.90
6118;DHT22;3089;48.202;11.510;2023-11-19T05:18:04;8.00;99.90
6118;DHT22;3089;48.202;11.510;2023-11-19T05:20:32;8.10;99.90
6118;DHT22;3089;48.202;11.510;2023-11-19T05:23:00;8.10;99.90
6118;DHT22;3089;48.202;11.510;2023-11-19T05:25:28;8.00;99.90
6118;DHT22;3089;48.202;11.510;2023-11-19T05:27:56;8.00;99.90
6118;DHT22;3089;48.202;11.510;2023-11-19T05:30:24;8.10;99.90
6118;DHT22;3089;48.202;11.510;2023-11-19T05:32:53;8.10;99.90
6118;DHT22;3089;48.202;11.510;2023-11-19T05:35:21;8.00;99.90
6118;DHT22;3089;48.202;11.510;2023-11-19T05:37:49;8.10;99.90
6118;DHT22;3089;48.202;11.510;2023-11-19T05:40:17;8.10;99.90
6118;DHT22;3089;48.202;11.510;2023-11-19T05:42:47;8.10;99.90
6118;DHT22;3089;48.202;11.510;2023-11-19T05:45:15;8.10;99.90
6118;DHT22;3089;48.202;11.510;2023-11-19T05:47:42;8.20;99.90
6118;DHT22;3089;48.202;11.510;2023-11-19T05:50:12;8.20;99.90
6118;DHT22;3089;48.202;11.510;2023-11-19T05:52:41;8.10;99.90
6118;DHT22;3089;48.202;11.510;2023-11-19T05:55:08;8.10;99.90
6118;DHT22;3089;48.202;11.510;2023-11-19T05:57:38;8.20;99.90
6118;DHT22;3089;48.202;11.510;2023-11-19T06:00:10;8.20;99.90
6118;DHT22;3089;48.202;11.510;2023-11-19T06:02:39;8.20;99.90
6118;DHT22;3089;48.202;11.510;2023-11-19T06:05:08;8.20;99.90
6118;DHT22;3089;48.202;11.510;2023-11-19T06:07:37;8.20;99.90
6118;DHT22;3089;48.202;11.510;2023-11-19T06:10:06;8.20;99.90
6118;DHT22;3089;48.202;11.510;2023-11-19T06:12:36;8.20;99.90
6118;DHT22;3089;48.202;11.510;2023-11-19T06:15:08;8.20;99.90
6118;DHT22;3089;48.202;11.510;2023-11-19T06:17:36;8.30;99.90
6118;DHT22;3089;48.202;11.510;2023-11-19T06:20:05;8.30;99.90
6118;DHT22;3089;48.202;11.510;2023-11-19T06:22:34;8.30;99.90
6118;DHT22;3089;48.202;11.510;2023-11-19T06:25:04;8.20;99.90
6118;DHT22;3089;48.202;11.510;2023-11-19T06:27:34;8.20;99.90
6118;DHT22;3089;48.202;11.510;2023-11-19T06:30:03;8.30;99.90
6118;DHT22;3089;48.202;11.510;2023-11-19T06:32:31;8.20;99.90
6118;DHT22;3089;48.202;11.510;2023-11-19T06:34:59;8.30;99.90
6118;DHT22;3089;48.202;11.510;2023-11-19T06:37:27;8.20;99.90
6118;DHT22;3089;48.202;11.510;2023-11-19T06:39:55;8.30;99.90
6118;DHT22;3089;48.202;11.510;2023-11-19T06:42:24;8.30;99.90
6118;DHT22;3089;48.202;11.510;2023-11-19T06:44:52;8.30;99.90
6118;DHT22;3089;48.202;11.510;2023-11-19T06:47:20;8.30;99.90
6118;DHT22;3089;48.202;11.510;2023-11-19T06:49:48;8.40;99.90
6118;DHT22;3089;48.202;11.510;2023-11-19T06:52:16;8.30;99.90
6118;DHT22;3089;48.202;11.510;2023-11-19T06:54:45;8.30;99.90
6118;DHT22;3089;48.202;11.510;2023-11-19T06:57:13;8.40;99.90
6118;DHT22;3089;48.202;11.510;2023-11-19T06:59:42;8.40;99.90
6118;DHT22;3089;48.202;11.510;2023-11-19T07:02:11;8.40;99.90
6118;DHT22;3089;48.202;11.510;2023-11-19T07:04:39;8.40;99.90
6118;DHT22;3089;48.202;11.510;2023-11-19T07:07:07;8.50;99.90
6118;DHT22;3089;48.202;11.510;2023-11-19T07:09:36;8.40;99.90
6118;DHT22;3089;48.202;11.510;2023-11-19T07:12:05;8.50;99.90
6118;DHT22;3089;48.202;11.510;2023-11-19T07:14:33;8.50;99.90
6118;DHT22;3089;48.202;11.510;2023-11-19T07:17:02;8.50;99.90
6118;DHT22;3089;48.202;11.510;2023-11-19T07:19:30;8.50;99.90
6118;DHT22;3089;48.202;11.510;2023-11-19T07:21:58;8.50;99.90
6118;DHT22;3089;48.202;11.510;2023-11-19T07:24:26;8.50;99.90
6118;DHT22;3089;48.202;11.510;2023-11-19T07:26:55;8.60;99.90
6118;DHT22;3089;48.202;11.510;2023-11-19T07:29:23;8.60;99.90
6118;DHT22;3089;48.202;11.510;2023-11-19T07:31:53;8.60;99.90
6118;DHT22;3089;48.202;11.510;2023-11-19T07:34:24;8.70;99.90
6118;DHT22;3089;48.202;11.510;2023-11-19T07:36:52;8.60;99.90
6118;DHT22;3089;48.202;11.510;2023-11-19T07:39:20;8.60;99.90
6118;DHT22;3089;48.202;11.510;2023-11-19T07:41:48;8.60;99.90
6118;DHT22;3089;48.202;11.510;2023-11-19T07:44:16;8.80;99.90
6118;DHT22;3089;48.202;11.510;2023-11-19T07:46:44;8.60;99.90
6118;DHT22;3089;48.202;11.510;2023-11-19T07:49:12;8.70;99.90
6118;DHT22;3089;48.202;11.510;2023-11-19T07:51:41;8.70;99.90
6118;DHT22;3089;48.202;11.510;2023-11-19T07:54:09;8.70;99.90
6118;DHT22;3089;48.202;11.510;2023-11-19T07:56:37;8.80;99.90
6118;DHT22;3089;48.202;11.510;2023-11-19T07:59:05;8.80;99.90
6118;DHT22;3089;48.202;11.510;2023-11-19T08:01:33;8.80;99.90
6118;DHT22;3089;48.202;11.510;2023-11-19T08:04:01;8.80;99.90
6118;DHT22;3089;48.202;11.510;2023-11-19T08:06:29;8.80;99.90
6118;DHT22;3089;48.202;11.510;2023-11-19T08:08:59;8.90;99.90
6118;DHT22;3089;48.202;11.510;2023-11-19T08:11:26;8.90;99.90
6118;DHT22;3089;48.202;11.510;2023-11-19T08:13:54;8.90;99.90
6118;DHT22;3089;48.202;11.510;2023-11-19T08:16:22;9.00;99.90
6118;DHT22;3089;48.202;11.510;2023-11-19T08:18:50;9.20;99.90
6118;DHT22;3089;48.202;11.510;2023-11-19T08:21:18;9.00;99.90
6118;DHT22;3089;48.202;11.510;2023-11-19T08:23:50;9.10;99.90
6118;DHT22;3089;48.202;11.510;2023-11-19T08:26:20;9.00;99.90
6118;DHT22;3089;48.202;11.510;2023-11-19T08:28:48;9.10;99.90
6118;DHT22;3089;48.202;11.510;2023-11-19T08:31:16;9.10;99.90
6118;DHT22;3089;48.202;11.510;2023-11-19T08:33:44;9.00;99.90
6118;DHT22;3089;48.202;11.510;2023-11-19T08:36:16;9.10;99.90
6118;DHT22;3089;48.202;11.510;2023-11-19T08:38:44;9.00;99.90
6118;DHT22;3089;48.202;11.510;2023-11-19T08:41:12;9.00;99.90
6118;DHT22;3089;48.202;11.510;2023-11-19T08:43:42;9.10;99.90
6118;DHT22;3089;48.202;11.510;2023-11-19T08:46:10;9.10;99.90
6118;DHT22;3089;48.202;11.510;2023-11-19T08:48:38;9.10;99.90
6118;DHT22;3089;48.202;11.510;2023-11-19T08:51:06;9.20;99.90
6118;DHT22;3089;48.202;11.510;2023-11-19T08:53:34;9.30;99.90
6118;DHT22;3089;48.202;11.510;2023-11-19T08:56:02;9.20;99.90
6118;DHT22;3089;48.202;11.510;2023-11-19T08:58:30;9.20;99.90
6118;DHT22;3089;48.202;11.510;2023-11-19T09:01:00;9.20;99.90
6118;DHT22;3089;48.202;11.510;2023-11-19T09:03:31;9.20;99.90
6118;DHT22;3089;48.202;11.510;2023-11-19T09:06:00;9.20;99.90
6118;DHT22;3089;48.202;11.510;2023-11-19T09:08:28;9.30;99.90
6118;DHT22;3089;48.202;11.510;2023-11-19T09:10:56;9.30;99.90
6118;DHT22;3089;48.202;11.510;2023-11-19T09:13:24;9.30;99.90
6118;DHT22;3089;48.202;11.510;2023-11-19T09:15:52;9.40;99.90
6118;DHT22;3089;48.202;11.510;2023-11-19T09:18:21;9.30;99.90
6118;DHT22;3089;48.202;11.510;2023-11-19T09:20:49;9.40;99.90
6118;DHT22;3089;48.202;11.510;2023-11-19T09:23:18;9.50;99.90
6118;DHT22;3089;48.202;11.510;2023-11-19T09:25:46;9.50;99.90
6118;DHT22;3089;48.202;11.510;2023-11-19T09:28:13;9.60;99.90
6118;DHT22;3089;48.202;11.510;2023-11-19T09:30:42;9.60;99.90
6118;DHT22;3089;48.202;11.510;2023-11-19T09:33:10;9.70;99.90
6118;DHT22;3089;48.202;11.510;2023-11-19T09:35:39;9.60;99.90
6118;DHT22;3089;48.202;11.510;2023-11-19T09:38:07;9.70;99.90
6118;DHT22;3089;48.202;11.510;2023-11-19T09:40:35;9.60;99.90
6118;DHT22;3089;48.202;11.510;2023-11-19T09:43:05;9.50;99.90
6118;DHT22;3089;48.202;11.510;2023-11-19T09:45:45;9.60;99.90
6118;DHT22;3089;48.202;11.510;2023-11-19T09:48:16;9.60;99.90
6118;DHT22;3089;48.202;11.510;2023-11-19T09:50:47;9.50;99.90
6118;DHT22;3089;48.202;11.510;2023-11-19T09:53:15;9.60;99.90
6118;DHT22;3089;48.202;11.510;2023-11-19T09:55:43;9.80;99.90
6118;DHT22;3089;48.202;11.510;2023-11-19T09:58:14;9.80;99.90
6118;DHT22;3089;48.202;11.510;2023-11-19T10:00:43;9.80;99.90
6118;DHT22;3089;48.202;11.510;2023-11-19T10:03:23;10.10;99.90
6118;DHT22;3089;48.202;11.510;2023-11-19T10:05:52;9.90;99.90
6118;DHT22;3089;48.202;11.510;2023-11-19T10:08:21;10.10;99.90
6118;DHT22;3089;48.202;11.510;2023-11-19T10:10:49;10.20;99.90
6118;DHT22;3089;48.202;11.510;2023-11-19T10:13:18;10.30;99.90
6118;DHT22;3089;48.202;11.510;2023-11-19T10:15:47;10.20;99.90
6118;DHT22;3089;48.202;11.510;2023-11-19T10:18:17;10.20;99.90
6118;DHT22;3089;48.202;11.510;2023-11-19T10:20:45;10.20;99.90
6118;DHT22;3089;48.202;11.510;2023-11-19T10:23:14;10.60;99.90
6118;DHT22;3089;48.202;11.510;2023-11-19T10:25:42;10.80;99.90
6118;DHT22;3089;48.202;11.510;2023-11-19T10:28:10;10.70;99.90
6118;DHT22;3089;48.202;11.510;2023-11-19T10:30:38;10.70;99.90
6118;DHT22;3089;48.202;11.510;2023-11-19T10:33:08;10.70;99.90
6118;DHT22;3089;48.202;11.510;2023-11-19T10:35:51;10.60;99.90
6118;DHT22;3089;48.202;11.510;2023-11-19T10:38:24;10.60;99.90
6118;DHT22;3089;48.202;11.510;2023-11-19T10:40:52;10.50;99.90
6118;DHT22;3089;48.202;11.510;2023-11-19T10:43:21;10.50;99.90
6118;DHT22;3089;48.202;11.510;2023-11-19T10:45:50;10.70;99.90
6118;DHT22;3089;48.202;11.510;2023-11-19T10:48:18;10.90;99.90
6118;DHT22;3089;48.202;11.510;2023-11-19T10:50:53;11.40;99.90
6118;DHT22;3089;48.202;11.510;2023-11-19T10:53:23;11.60;99.90
6118;DHT22;3089;48.202;11.510;2023-11-19T10:55:54;11.40;99.90
6118;DHT22;3089;48.202;11.510;2023-11-19T10:58:26;11.20;99.90
6118;DHT22;3089;48.202;11.510;2023-11-19T11:00:57;11.60;99.90
6118;DHT22;3089;48.202;11.510;2023-11-19T11:03:37;12.00;99.90
6118;DHT22;3089;48.202;11.510;2023-11-19T11:06:08;12.60;99.90
6118;DHT22;3089;48.202;11.510;2023-11-19T11:08:39;12.80;99.90
6118;DHT22;3089;48.202;11.510;2023-11-19T11:11:08;12.80;99.90
6118;DHT22;3089;48.202;11.510;2023-11-19T11:13:37;12.60;99.90
6118;DHT22;3089;48.202;11.510;2023-11-19T11:16:07;12.40;99.90
6118;DHT22;3089;48.202;11.510;2023-11-19T11:18:36;12.20;99.90
6118;DHT22;3089;48.202;11.510;2023-11-19T11:21:07;12.40;99.90
6118;DHT22;3089;48.202;11.510;2023-11-19T11:23:56;12.50;99.90
6118;DHT22;3089;48.202;11.510;2023-11-19T11:26:47;12.30;99.90
6118;DHT22;3089;48.202;11.510;2023-11-19T11:29:26;12.10;99.90
6118;DHT22;3089;48.202;11.510;2023-11-19T11:32:02;12.20;99.90
6118;DHT22;3089;48.202;11.510;2023-11-19T11:34:49;12.30;99.90
6118;DHT22;3089;48.202;11.510;2023-11-19T11:37:29;12.40;99.90
6118;DHT22;3089;48.202;11.510;2023-11-19T11:39:59;12.60;99.90
6118;DHT22;3089;48.202;11.510;2023-11-19T11:42:35;13.00;99.90
6118;DHT22;3089;48.202;11.510;2023-11-19T11:45:04;13.10;99.90
6118;DHT22;3089;48.202;11.510;2023-11-19T11:48:08;13.20;99.90
6118;DHT22;3089;48.202;11.510;2023-11-19T11:50:52;13.30;99.90
6118;DHT22;3089;48.202;11.510;2023-11-19T11:53:22;13.30;99.90
6118;DHT22;3089;48.202;11.510;2023-11-19T11:55:57;13.20;99.90
6118;DHT22;3089;48.202;11.510;2023-11-19T11:58:35;13.10;99.90
6118;DHT22;3089;48.202;11.510;2023-11-19T12:01:05;13.10;99.90
6118;DHT22;3089;48.202;11.510;2023-11-19T12:03:33;13.20;99.90
6118;DHT22;3089;48.202;11.510;2023-11-19T12:06:02;13.50;99.90
6118;DHT22;3089;48.202;11.510;2023-11-19T12:08:30;13.40;99.90
6118;DHT22;3089;48.202;11.510;2023-11-19T12:11:01;13.50;99.90
6118;DHT22;3089;48.202;11.510;2023-11-19T12:13:47;13.80;99.90
6118;DHT22;3089;48.202;11.510;2023-11-19T12:16:15;14.00;99.90
6118;DHT22;3089;48.202;11.510;2023-11-19T12:18:47;13.90;99.90
6118;DHT22;3089;48.202;11.510;2023-11-19T12:21:35;13.90;99.90
6118;DHT22;3089;48.202;11.510;2023-11-19T12:24:06;13.80;99.90
6118;DHT22;3089;48.202;11.510;2023-11-19T12:26:37;13.60;99.90
6118;DHT22;3089;48.202;11.510;2023-11-19T12:29:05;13.50;99.90
6118;DHT22;3089;48.202;11.510;2023-11-19T12:31:35;13.30;99.90
6118;DHT22;3089;48.202;11.510;2023-11-19T12:34:08;13.10;99.90
6118;DHT22;3089;48.202;11.510;2023-11-19T12:36:40;13.00;99.90
6118;DHT22;3089;48.202;11.510;2023-11-19T12:39:10;13.20;99.90
6118;DHT22;3089;48.202;11.510;2023-11-19T12:41:52;13.10;99.90
6118;DHT22;3089;48.202;11.510;2023-11-19T12:44:19;12.80;99.90
6118;DHT22;3089;48.202;11.510;2023-11-19T12:46:58;12.70;99.90
6118;DHT22;3089;48.202;11.510;2023-11-19T12:49:26;12.90;99.90
6118;DHT22;3089;48.202;11.510;2023-11-19T12:51:54;13.20;99.90
6118;DHT22;3089;48.202;11.510;2023-11-19T12:54:32;13.20;99.90
6118;DHT22;3089;48.202;11.510;2023-11-19T12:57:02;13.00;99.90
6118;DHT22;3089;48.202;11.510;2023-11-19T12:59:31;12.80;99.90
6118;DHT22;3089;48.202;11.510;2023-11-19T13:02:00;12.80;99.90
6118;DHT22;3089;48.202;11.510;2023-11-19T13:04:29;12.80;99.90
6118;DHT22;3089;48.202;11.510;2023-11-19T13:06:58;12.80;99.90
6118;DHT22;3089;48.202;11.510;2023-11-19T13:09:29;12.70;99.90
6118;DHT22;3089;48.202;11.510;2023-11-19T13:11:57;12.60;99.90
6118;DHT22;3089;48.202;11.510;2023-11-19T13:14:44;12.60;99.90
6118;DHT22;3089;48.202;11.510;2023-11-19T13:17:17;12.40;99.90
6118;DHT22;3089;48.202;11.510;2023-11-19T13:19:47;12.50;99.90
6118;DHT22;3089;48.202;11.510;2023-11-19T13:22:15;12.50;99.90
6118;DHT22;3089;48.202;11.510;2023-11-19T13:24:43;12.60;99.90
6118;DHT22;3089;48.202;11.510;2023-11-19T13:27:11;12.50;99.90
6118;DHT22;3089;48.202;11.510;2023-11-19T13:29:40;12.50;99.90
6118;DHT22;3089;48.202;11.510;2023-11-19T13:32:08;12.50;99.90
6118;DHT22;3089;48.202;11.510;2023-11-19T13:34:36;12.50;99.90
6118;DHT22;3089;48.202;11.510;2023-11-19T13:37:04;12.50;99.90
6118;DHT22;3089;48.202;11.510;2023-11-19T13:39:32;12.60;99.90
6118;DHT22;3089;48.202;11.510;2023-11-19T13:42:00;12.50;99.90
6118;DHT22;3089;48.202;11.510;2023-11-19T13:44:30;12.30;99.90
6118;DHT22;3089;48.202;11.510;2023-11-19T13:47:00;12.20;99.90
6118;DHT22;3089;48.202;11.510;2023-11-19T13:49:29;12.10;99.90
6118;DHT22;3089;48.202;11.510;2023-11-19T13:51:57;12.10;99.90
6118;DHT22;3089;48.202;11.510;2023-11-19T13:54:24;12.00;99.90
6118;DHT22;3089;48.202;11.510;2023-11-19T13:56:55;12.00;99.90
6118;DHT22;3089;48.202;11.510;2023-11-19T13:59:24;12.00;99.90
6118;DHT22;3089;48.202;11.510;2023-11-19T14:01:52;12.10;99.90
6118;DHT22;3089;48.202;11.510;2023-11-19T14:04:21;12.10;99.90
6118;DHT22;3089;48.202;11.510;2023-11-19T14:06:49;12.10;99.90
6118;DHT22;3089;48.202;11.510;2023-11-19T14:09:17;12.00;99.90
6118;DHT22;3089;48.202;11.510;2023-11-19T14:11:45;12.00;99.90
6118;DHT22;3089;48.202;11.510;2023-11-19T14:14:13;12.00;99.90
6118;DHT22;3089;48.202;11.510;2023-11-19T14:16:42;12.10;99.90
6118;DHT22;3089;48.202;11.510;2023-11-19T14:19:11;12.00;99.90
6118;DHT22;3089;48.202;11.510;2023-11-19T14:21:41;12.00;99.90
6118;DHT22;3089;48.202;11.510;2023-11-19T14:24:11;12.00;99.90
6118;DHT22;3089;48.202;11.510;2023-11-19T14:26:39;12.00;99.90
6118;DHT22;3089;48.202;11.510;2023-11-19T14:29:07;12.10;99.90
6118;DHT22;3089;48.202;11.510;2023-11-19T14:31:34;12.10;99.90
6118;DHT22;3089;48.202;11.510;2023-11-19T14:34:03;12.10;99.90
6118;DHT22;3089;48.202;11.510;2023-11-19T14:36:31;12.20;99.90
6118;DHT22;3089;48.202;11.510;2023-11-19T14:39:00;12.10;99.90
6118;DHT22;3089;48.202;11.510;2023-11-19T14:41:28;12.10;99.90
6118;DHT22;3089;48.202;11.510;2023-11-19T14:43:55;12.00;99.90
6118;DHT22;3089;48.202;11.510;2023-11-19T14:46:23;12.00;99.90
6118;DHT22;3089;48.202;11.510;2023-11-19T14:48:51;12.00;99.90
6118;DHT22;3089;48.202;11.510;2023-11-19T14:51:19;11.90;99.90
6118;DHT22;3089;48.202;11.510;2023-11-19T14:53:47;11.80;99.90
6118;DHT22;3089;48.202;11.510;2023-11-19T14:56:16;11.80;99.90
6118;DHT22;3089;48.202;11.510;2023-11-19T14:58:44;11.80;99.90
6118;DHT22;3089;48.202;11.510;2023-11-19T15:01:12;11.70;99.90
6118;DHT22;3089;48.202;11.510;2023-11-19T15:03:40;11.70;99.90
6118;DHT22;3089;48.202;11.510;2023-11-19T15:06:11;11.70;99.90
6118;DHT22;3089;48.202;11.510;2023-11-19T15:08:39;11.60;99.90
6118;DHT22;3089;48.202;11.510;2023-11-19T15:11:08;11.60;99.90
6118;DHT22;3089;48.202;11.510;2023-11-19T15:13:39;11.60;99.90
6118;DHT22;3089;48.202;11.510;2023-11-19T15:16:08;11.60;99.90
6118;DHT22;3089;48.202;11.510;2023-11-19T15:18:38;11.50;99.90
6118;DHT22;3089;48.202;11.510;2023-11-19T15:21:06;11.50;99.90
6118;DHT22;3089;48.202;11.510;2023-11-19T15:23:35;11.50;99.90
6118;DHT22;3089;48.202;11.510;2023-11-19T15:26:03;11.40;99.90
6118;DHT22;3089;48.202;11.510;2023-11-19T15:28:33;11.40;99.90
6118;DHT22;3089;48.202;11.510;2023-11-19T15:31:02;11.40;99.90
6118;DHT22;3089;48.202;11.510;2023-11-19T15:33:30;11.30;99.90
6118;DHT22;3089;48.202;11.510;2023-11-19T15:35:58;11.30;99.90
6118;DHT22;3089;48.202;11.510;2023-11-19T15:38:28;11.30;99.90
6118;DHT22;3089;48.202;11.510;2023-11-19T15:40:56;11.30;99.90
6118;DHT22;3089;48.202;11.510;2023-11-19T15:43:24;11.20;99.90
6118;DHT22;3089;48.202;11.510;2023-11-19T15:45:52;11.20;99.90
6118;DHT22;3089;48.202;11.510;2023-11-19T15:48:22;11.20;99.90
6118;DHT22;3089;48.202;11.510;2023-11-19T15:50:51;11.20;99.90
6118;DHT22;3089;48.202;11.510;2023-11-19T15:53:19;11.20;99.90
6118;DHT22;3089;48.202;11.510;2023-11-19T15:55:47;11.20;99.90
6118;DHT22;3089;48.202;11.510;2023-11-19T15:58:15;11.30;99.90
6118;DHT22;3089;48.202;11.510;2023-11-19T16:00:44;11.30;99.90
6118;DHT22;3089;48.202;11.510;2023-11-19T16:03:13;11.30;99.90
6118;DHT22;3089;48.202;11.510;2023-11-19T16:05:43;11.30;99.90
6118;DHT22;3089;48.202;11.510;2023-11-19T16:08:13;11.30;99.90